createdAt,value
2019-04-11T00:00:57.626Z,93544.58
2019-04-11T00:03:27.143Z,93552.98
2019-04-11T00:05:56.014Z,93549.90
2019-04-11T00:08:25.880Z,93545.96
2019-04-11T00:10:55.561Z,93538.92
2019-04-11T00:13:27.041Z,93544.34
2019-04-11T00:15:54.987Z,93535.23
2019-04-11T00:18:24.954Z,93540.53
2019-04-11T00:20:53.718Z,93547.69
2019-04-11T00:23:22.427Z,93539.66
2019-04-11T00:25:51.664Z,93548.78
2019-04-11T00:28:21.579Z,93547.92
2019-04-11T00:30:50.531Z,93547.55
2019-04-11T00:33:20.220Z,93550.38
2019-04-11T00:35:50.111Z,93549.75
2019-04-11T00:38:19.084Z,93552.46
2019-04-11T00:40:47.784Z,93552.97
2019-04-11T00:43:29.699Z,93548.64
2019-04-11T00:45:47.713Z,93547.80
2019-04-11T00:48:17.494Z,93550.99
2019-04-11T00:50:47.527Z,93546.07
2019-04-11T00:53:16.425Z,93544.36
2019-04-11T00:55:46.017Z,93544.33
2019-04-11T00:58:14.948Z,93539.05
2019-04-11T01:00:43.667Z,93540.66
2019-04-11T01:03:12.407Z,93540.05
2019-04-11T01:05:41.528Z,93541.24
2019-04-11T01:08:11.437Z,93538.05
2019-04-11T01:10:41.413Z,93544.45
2019-04-11T01:13:11.256Z,93544.81
2019-04-11T01:15:42.745Z,93545.91
2019-04-11T01:18:11.913Z,93546.41
2019-04-11T01:20:41.885Z,93542.45
2019-04-11T01:23:11.039Z,93544.69
2019-04-11T01:25:40.950Z,93549.38
2019-04-11T01:28:10.266Z,93541.36
2019-04-11T01:30:49.629Z,93539.61
2019-04-11T01:33:18.325Z,93537.63
2019-04-11T01:35:47.767Z,93540.20
2019-04-11T01:38:16.774Z,93538.36
2019-04-11T01:40:45.658Z,93544.36
2019-04-11T01:43:15.591Z,93540.06
2019-04-11T01:45:45.586Z,93537.86
2019-04-11T01:48:17.461Z,93546.08
2019-04-11T01:50:47.110Z,93533.50
2019-04-11T01:53:17.103Z,93535.30
2019-04-11T01:55:45.869Z,93535.02
2019-04-11T01:58:14.684Z,93542.54
2019-04-11T02:00:50.986Z,93533.67
2019-04-11T02:03:21.263Z,93537.99
2019-04-11T02:05:49.938Z,93539.22
2019-04-11T02:08:19.593Z,93548.36
2019-04-11T02:10:48.760Z,93546.64
2019-04-11T02:13:17.736Z,93545.84
2019-04-11T02:15:46.426Z,93542.97
2019-04-11T02:18:15.151Z,93552.59
2019-04-11T02:20:43.830Z,93549.89
2019-04-11T02:23:17.145Z,93558.64
2019-04-11T02:26:03.082Z,93556.30
2019-04-11T02:28:32.790Z,93553.47
2019-04-11T02:31:02.755Z,93560.27
2019-04-11T02:33:32.957Z,93556.23
2019-04-11T02:36:03.182Z,93557.43
2019-04-11T02:38:32.543Z,93560.40
2019-04-11T02:41:03.681Z,93556.94
2019-04-11T02:43:34.108Z,93560.53
2019-04-11T02:46:11.783Z,93559.57
2019-04-11T02:48:35.573Z,93565.97
2019-04-11T02:51:07.263Z,93541.98
2019-04-11T02:53:36.792Z,93564.52
2019-04-11T02:56:06.912Z,93561.20
2019-04-11T02:58:36.968Z,93566.98
2019-04-11T03:01:08.163Z,93568.23
2019-04-11T03:03:39.423Z,93563.30
2019-04-11T03:06:09.346Z,93568.23
2019-04-11T03:08:40.833Z,93568.46
2019-04-11T03:11:10.844Z,93545.67
2019-04-11T03:13:39.978Z,93571.67
2019-04-11T03:16:26.478Z,93568.83
2019-04-11T03:18:54.876Z,93563.80
2019-04-11T03:21:14.601Z,93547.42
2019-04-11T03:23:41.765Z,93567.00
2019-04-11T03:26:12.413Z,93569.72
2019-04-11T03:28:45.151Z,93558.00
2019-04-11T03:31:53.287Z,93564.19
2019-04-11T03:34:24.972Z,93570.20
2019-04-11T03:39:05.427Z,93568.85
2019-04-11T03:41:32.043Z,93569.08
2019-04-11T03:43:58.019Z,93580.80
2019-04-11T03:46:34.031Z,93586.72
2019-04-11T03:49:00.045Z,93589.67
2019-04-11T03:51:22.545Z,93590.30
2019-04-11T03:53:51.754Z,93586.94
2019-04-11T03:56:22.049Z,93588.06
2019-04-11T03:58:50.816Z,93595.18
2019-04-11T04:01:21.216Z,93602.94
2019-04-11T04:03:53.420Z,93600.09
2019-04-11T04:06:23.348Z,93601.41
2019-04-11T04:08:53.205Z,93587.27
2019-04-11T04:11:27.154Z,93605.73
2019-04-11T04:14:24.291Z,93612.02
2019-04-11T04:17:11.306Z,93609.88
2019-04-11T04:19:43.755Z,93617.87
2019-04-11T04:22:27.263Z,93624.50
2019-04-11T04:24:58.756Z,93629.55
2019-04-11T04:27:28.160Z,93628.53
2019-04-11T04:29:59.609Z,93624.42
2019-04-11T04:32:28.026Z,93625.14
2019-04-11T04:34:58.402Z,93626.22
2019-04-11T04:37:27.209Z,93615.59
2019-04-11T04:40:16.313Z,93628.30
2019-04-11T04:42:33.297Z,93634.09
2019-04-11T04:44:58.894Z,93628.55
2019-04-11T04:47:37.097Z,93639.83
2019-04-11T04:49:59.324Z,93636.48
2019-04-11T04:52:29.739Z,93632.03
2019-04-11T04:54:59.507Z,93635.63
2019-04-11T04:57:31.223Z,93646.49
2019-04-11T05:00:00.143Z,93643.78
2019-04-11T05:02:30.946Z,93639.99
2019-04-11T05:05:01.284Z,93641.86
2019-04-11T05:07:34.613Z,93641.44
2019-04-11T05:10:03.281Z,93641.41
2019-04-11T05:12:31.591Z,93641.36
2019-04-11T05:15:01.494Z,93643.02
2019-04-11T05:17:30.439Z,93643.36
2019-04-11T05:19:59.121Z,93645.43
2019-04-11T05:22:27.807Z,93650.11
2019-04-11T05:24:59.280Z,93643.31
2019-04-11T05:27:26.913Z,93652.73
2019-04-11T05:29:55.584Z,93651.92
2019-04-11T05:32:26.755Z,93651.75
2019-04-11T05:34:54.684Z,93647.50
2019-04-11T05:37:23.347Z,93643.09
2019-04-11T05:39:52.519Z,93648.59
2019-04-11T05:42:24.997Z,93642.14
2019-04-11T05:44:51.687Z,93647.16
2019-04-11T05:47:21.457Z,93648.34
2019-04-11T05:49:52.696Z,93651.13
2019-04-11T05:52:21.486Z,93649.57
2019-04-11T05:54:52.568Z,93657.91
2019-04-11T05:57:24.254Z,93658.95
2019-04-11T05:59:53.424Z,93659.80
2019-04-11T06:02:26.849Z,93654.14
2019-04-11T06:05:13.218Z,93657.07
2019-04-11T06:07:54.789Z,93645.20
2019-04-11T06:10:30.364Z,93647.16
2019-04-11T06:13:04.569Z,93648.77
2019-04-11T06:15:43.657Z,93650.70
2019-04-11T06:18:24.166Z,93656.82
2019-04-11T06:20:47.817Z,93659.34
2019-04-11T06:23:25.404Z,93656.25
2019-04-11T06:26:06.695Z,93652.98
2019-04-11T06:28:36.115Z,93660.20
2019-04-11T06:31:18.561Z,93661.00
2019-04-11T06:33:49.078Z,93667.62
2019-04-11T06:36:19.367Z,93663.03
2019-04-11T06:38:56.646Z,93661.02
2019-04-11T06:41:30.602Z,93661.75
2019-04-11T06:44:04.751Z,93665.42
2019-04-11T06:46:54.848Z,93670.91
2019-04-11T06:49:24.686Z,93670.78
2019-04-11T06:51:55.160Z,93674.69
2019-04-11T06:54:32.781Z,93671.88
2019-04-11T06:57:03.449Z,93673.70
2019-04-11T06:59:42.968Z,93678.72
2019-04-11T07:02:18.055Z,93682.20
2019-04-11T07:04:46.296Z,93675.59
2019-04-11T07:07:16.298Z,93676.41
2019-04-11T07:09:50.084Z,93678.58
2019-04-11T07:12:20.678Z,93678.29
2019-04-11T07:14:50.945Z,93677.52
2019-04-11T07:17:38.612Z,93678.52
2019-04-11T07:20:09.097Z,93679.62
2019-04-11T07:22:55.825Z,93678.83
2019-04-11T07:25:26.895Z,93668.62
2019-04-11T07:28:12.493Z,93638.77
2019-04-11T07:31:00.416Z,93675.82
2019-04-11T07:33:31.458Z,93673.13
2019-04-11T07:36:18.483Z,93677.13
2019-04-11T07:38:58.958Z,93677.19
2019-04-11T07:41:39.244Z,93560.36
2019-04-11T07:44:32.170Z,93673.97
2019-04-11T07:47:13.650Z,93675.73
2019-04-11T07:49:40.945Z,93682.00
2019-04-11T07:52:17.546Z,93671.23
2019-04-11T07:54:47.740Z,93671.89
2019-04-11T07:57:19.319Z,93668.64
2019-04-11T08:00:06.066Z,93678.06
2019-04-11T08:02:53.236Z,93681.52
2019-04-11T08:05:39.402Z,93678.40
2019-04-11T08:08:25.861Z,93676.73
2019-04-11T08:10:58.144Z,93684.10
2019-04-11T08:13:31.856Z,93685.84
2019-04-11T08:16:06.304Z,93689.43
2019-04-11T08:18:46.029Z,93674.74
2019-04-11T08:21:34.570Z,93684.73
2019-04-11T08:24:04.788Z,93681.87
2019-04-11T08:26:52.394Z,93686.38
2019-04-11T08:29:22.224Z,93689.69
2019-04-11T08:32:02.671Z,93682.98
2019-04-11T08:34:32.903Z,93684.33
2019-04-11T08:37:21.444Z,93683.16
2019-04-11T08:39:50.815Z,93676.52
2019-04-11T08:42:40.707Z,93678.06
2019-04-11T08:45:12.337Z,93678.56
2019-04-11T08:47:51.672Z,93677.30
2019-04-11T08:50:18.588Z,93678.55
2019-04-11T08:52:48.928Z,93676.59
2019-04-11T08:55:19.234Z,93673.50
2019-04-11T08:57:49.858Z,93672.94
2019-04-11T09:00:20.542Z,93656.92
2019-04-11T09:02:53.344Z,93632.78
2019-04-11T09:05:24.997Z,93670.59
2019-04-11T09:07:56.130Z,93679.61
2019-04-11T09:10:28.188Z,93686.16
2019-04-11T09:13:02.720Z,93682.70
2019-04-11T09:15:39.169Z,93678.74
2019-04-11T09:18:10.742Z,93677.47
2019-04-11T09:20:45.890Z,93678.20
2019-04-11T09:23:14.853Z,93674.59
2019-04-11T09:25:51.312Z,93685.95
2019-04-11T09:28:19.900Z,93681.27
2019-04-11T09:31:04.241Z,93684.14
2019-04-11T09:33:51.306Z,93681.94
2019-04-11T09:36:33.889Z,93680.59
2019-04-11T09:39:23.290Z,93679.55
2019-04-11T09:41:57.709Z,93672.81
2019-04-11T09:44:28.846Z,93682.31
2019-04-11T09:47:03.430Z,93677.37
2019-04-11T09:49:37.681Z,93679.60
2019-04-11T09:52:08.792Z,93678.34
2019-04-11T09:54:45.120Z,93672.97
2019-04-11T09:57:27.465Z,93668.96
2019-04-11T10:00:14.267Z,93603.88
2019-04-11T10:02:50.593Z,93670.81
2019-04-11T10:05:22.233Z,93660.84
2019-04-11T10:08:02.218Z,93670.22
2019-04-11T10:10:33.143Z,93672.42
2019-04-11T10:13:20.560Z,93670.63
2019-04-11T10:16:00.232Z,93667.86
2019-04-11T10:18:41.060Z,93674.37
2019-04-11T10:21:12.973Z,93671.77
2019-04-11T10:24:01.025Z,93672.62
2019-04-11T10:26:31.976Z,93676.49
2019-04-11T10:29:06.422Z,93675.27
2019-04-11T10:31:36.995Z,93671.53
2019-04-11T10:36:45.755Z,93674.83
2019-04-11T10:39:22.243Z,93684.39
2019-04-11T10:41:53.740Z,93677.90
2019-04-11T10:44:24.036Z,93670.00
2019-04-11T10:46:54.298Z,93635.89
2019-04-11T10:49:42.037Z,93672.30
2019-04-11T10:52:12.552Z,93674.11
2019-04-11T10:54:42.939Z,93678.55
2019-04-11T10:57:13.897Z,93684.56
2019-04-11T10:59:44.929Z,93686.59
2019-04-11T11:02:31.805Z,93673.41
2019-04-11T11:05:01.000Z,93674.55
2019-04-11T11:07:32.808Z,93672.50
2019-04-11T11:10:07.167Z,93677.14
2019-04-11T11:12:47.555Z,93685.20
2019-04-11T11:15:18.027Z,93676.02
2019-04-11T11:18:20.648Z,93676.91
2019-04-11T11:20:39.088Z,93643.98
2019-04-11T11:23:22.845Z,93661.16
2019-04-11T11:26:09.363Z,93659.69
2019-04-11T11:28:39.716Z,93655.08
2019-04-11T11:31:28.387Z,93668.63
2019-04-11T11:33:58.837Z,93662.53
2019-04-11T11:36:37.016Z,93668.99
2019-04-11T11:39:17.347Z,93662.84
2019-04-11T11:42:04.259Z,93670.02
2019-04-11T11:44:46.853Z,93672.33
2019-04-11T11:47:39.759Z,93672.67
2019-04-11T11:50:15.531Z,93672.17
2019-04-11T11:52:59.512Z,93673.83
2019-04-11T11:55:31.412Z,93686.38
2019-04-11T11:58:03.425Z,93681.39
2019-04-11T12:00:33.319Z,93679.33
2019-04-11T12:03:06.796Z,93669.67
2019-04-11T12:05:37.153Z,93684.14
2019-04-11T12:08:15.367Z,93679.04
2019-04-11T12:10:45.911Z,93690.97
2019-04-11T12:13:17.192Z,93681.59
2019-04-11T12:15:47.513Z,93699.45
2019-04-11T12:18:35.233Z,93703.71
2019-04-11T12:21:05.684Z,93701.47
2019-04-11T12:23:48.647Z,93700.36
2019-04-11T12:26:13.681Z,93700.00
2019-04-11T12:28:54.194Z,93704.20
2019-04-11T12:31:24.537Z,93696.08
2019-04-11T12:34:12.263Z,93688.72
2019-04-11T12:36:48.093Z,93681.06
2019-04-11T12:39:34.069Z,93683.20
2019-04-11T12:42:04.317Z,93668.44
2019-04-11T12:44:37.737Z,93675.59
2019-04-11T12:47:16.981Z,93668.66
2019-04-11T12:49:53.070Z,93671.57
2019-04-11T12:52:39.884Z,93660.88
2019-04-11T12:55:10.336Z,93664.00
2019-04-11T12:57:56.709Z,93666.23
2019-04-11T13:00:43.131Z,93670.11
2019-04-11T13:03:31.424Z,93683.72
2019-04-11T13:06:01.906Z,93673.31
2019-04-11T13:08:48.691Z,93665.72
2019-04-11T13:11:18.950Z,93664.00
2019-04-11T13:14:05.372Z,93657.90
2019-04-11T13:16:34.139Z,93664.75
2019-04-11T13:19:04.426Z,93644.41
2019-04-11T13:21:37.894Z,93660.16
2019-04-11T13:24:14.102Z,93655.73
2019-04-11T13:26:59.641Z,93664.95
2019-04-11T13:29:29.893Z,93657.78
2019-04-11T13:32:16.141Z,93654.44
2019-04-11T13:34:52.708Z,93655.81
2019-04-11T13:37:39.365Z,93661.98
2019-04-11T13:40:09.735Z,93654.61
2019-04-11T13:42:55.313Z,93661.08
2019-04-11T13:45:25.187Z,93650.25
2019-04-11T13:48:11.591Z,93646.38
2019-04-11T13:50:40.435Z,93653.95
2019-04-11T13:53:22.676Z,93650.77
2019-04-11T13:55:51.371Z,93648.31
2019-04-11T13:58:33.728Z,93646.54
2019-04-11T14:01:04.156Z,93652.81
2019-04-11T14:03:40.197Z,93654.98
2019-04-11T14:06:10.440Z,93660.72
2019-04-11T14:08:40.707Z,93651.90
2019-04-11T14:11:16.726Z,93651.36
2019-04-11T14:13:45.747Z,93653.09
2019-04-11T14:16:25.801Z,93652.45
2019-04-11T14:19:11.709Z,93659.66
2019-04-11T14:21:38.942Z,93649.89
2019-04-11T14:24:11.406Z,93655.65
2019-04-11T14:26:57.395Z,93648.70
2019-04-11T14:29:44.307Z,93651.34
2019-04-11T14:32:14.614Z,93650.47
2019-04-11T14:34:47.927Z,93649.54
2019-04-11T14:37:18.180Z,93655.73
2019-04-11T14:40:03.523Z,93655.61
2019-04-11T14:42:45.755Z,93657.19
2019-04-11T14:45:28.283Z,93643.94
2019-04-11T14:48:14.024Z,93651.17
2019-04-11T14:51:03.616Z,93643.59
2019-04-11T14:53:50.729Z,93651.80
2019-04-11T14:56:22.201Z,93638.19
2019-04-11T14:58:54.312Z,93628.91
2019-04-11T15:01:27.975Z,93622.89
2019-04-11T15:03:59.411Z,93623.42
2019-04-11T15:06:35.649Z,93614.91
2019-04-11T15:09:11.071Z,93620.51
2019-04-11T15:11:41.337Z,93614.48
2019-04-11T15:14:20.887Z,93596.31
2019-04-11T15:17:08.950Z,93617.15
2019-04-11T15:19:39.456Z,93611.49
2019-04-11T15:22:18.711Z,93601.40
2019-04-11T15:25:05.755Z,93609.23
2019-04-11T15:27:55.674Z,93601.47
2019-04-11T15:30:43.489Z,93597.02
2019-04-11T15:33:30.042Z,93601.98
2019-04-11T15:36:00.298Z,93599.12
2019-04-11T15:38:42.875Z,93606.14
2019-04-11T15:41:12.435Z,93607.69
2019-04-11T15:43:58.792Z,93602.85
2019-04-11T15:46:29.160Z,93608.25
2019-04-11T15:49:21.874Z,93602.96
2019-04-11T15:51:50.400Z,93609.11
2019-04-11T15:54:37.165Z,93615.09
2019-04-11T15:57:12.402Z,93617.27
2019-04-11T15:59:43.813Z,93609.17
2019-04-11T16:02:21.042Z,93614.02
2019-04-11T16:04:57.086Z,93611.61
2019-04-11T16:07:43.558Z,93614.77
2019-04-11T16:10:13.435Z,93614.30
2019-04-11T16:12:46.693Z,93614.30
2019-04-11T16:15:16.253Z,93619.98
2019-04-11T16:18:02.585Z,93614.68
2019-04-11T16:20:31.302Z,93621.83
2019-04-11T16:23:11.049Z,93620.48
2019-04-11T16:25:39.944Z,93609.36
2019-04-11T16:28:22.194Z,93618.25
2019-04-11T16:30:52.540Z,93618.23
2019-04-11T16:33:45.733Z,93622.87
2019-04-11T16:36:13.201Z,93626.52
2019-04-11T16:38:49.678Z,93628.43
2019-04-11T16:41:35.734Z,93633.25
2019-04-11T16:44:06.236Z,93636.92
2019-04-11T16:46:54.808Z,93636.73
2019-04-11T16:49:23.712Z,93639.07
2019-04-11T16:51:53.940Z,93638.69
2019-04-11T16:54:22.656Z,93640.17
2019-04-11T16:56:51.372Z,93636.18
2019-04-11T16:59:20.629Z,93642.08
2019-04-11T17:01:53.517Z,93655.15
2019-04-11T17:04:19.911Z,93653.80
2019-04-11T17:07:06.442Z,93653.48
2019-04-11T17:09:39.403Z,93654.34
2019-04-11T17:12:08.085Z,93657.57
2019-04-11T17:14:36.763Z,93656.50
2019-04-11T17:17:14.552Z,93662.12
2019-04-11T17:19:36.733Z,93670.31
2019-04-11T17:22:05.518Z,93677.30
2019-04-11T17:24:34.425Z,93679.48
2019-04-11T17:27:03.136Z,93680.23
2019-04-11T17:29:32.304Z,93679.10
2019-04-11T17:32:00.984Z,93684.83
2019-04-11T17:34:32.063Z,93687.16
2019-04-11T17:37:02.522Z,93695.57
2019-04-11T17:39:30.459Z,93693.07
2019-04-11T17:41:59.126Z,93694.46
2019-04-11T17:44:27.795Z,93699.28
2019-04-11T17:46:57.331Z,93700.19
2019-04-11T17:49:26.032Z,93698.80
2019-04-11T17:51:56.053Z,93702.95
2019-04-11T17:54:25.579Z,93708.34
2019-04-11T17:56:58.883Z,93713.48
2019-04-11T17:59:28.904Z,93718.55
2019-04-11T18:01:57.007Z,93720.28
2019-04-11T18:04:25.673Z,93723.70
2019-04-11T18:06:54.359Z,93726.38
2019-04-11T18:09:25.716Z,93739.89
2019-04-11T18:11:55.881Z,93754.30
2019-04-11T18:14:23.919Z,93750.71
2019-04-11T18:16:52.592Z,93748.66
2019-04-11T18:19:21.276Z,93746.95
2019-04-11T18:21:50.057Z,93752.97
2019-04-11T18:24:19.991Z,93749.86
2019-04-11T18:26:51.719Z,93750.99
2019-04-11T18:29:22.736Z,93756.83
2019-04-11T18:31:53.172Z,93758.69
2019-04-11T18:34:21.818Z,93753.95
2019-04-11T18:36:50.500Z,93765.28
2019-04-11T18:39:19.258Z,93770.19
2019-04-11T18:41:47.919Z,93770.92
2019-04-11T18:44:18.293Z,93765.98
2019-04-11T18:46:47.125Z,93760.09
2019-04-11T18:49:15.802Z,93761.30
2019-04-11T18:51:44.476Z,93766.67
2019-04-11T18:54:13.195Z,93760.73
2019-04-11T18:56:41.871Z,93764.44
2019-04-11T18:59:10.638Z,93766.16
2019-04-11T19:01:40.105Z,93765.64
2019-04-11T19:04:11.785Z,93765.64
2019-04-11T19:06:42.505Z,93770.32
2019-04-11T19:09:13.879Z,93765.91
2019-04-11T19:11:43.904Z,93767.36
2019-04-11T19:14:15.801Z,93772.53
2019-04-11T19:16:43.796Z,93770.20
2019-04-11T19:19:12.941Z,93779.15
2019-04-11T19:21:43.210Z,93777.27
2019-04-11T19:24:13.050Z,93768.59
2019-04-11T19:26:46.111Z,93771.03
2019-04-11T19:29:12.386Z,93780.58
2019-04-11T19:31:41.244Z,93780.00
2019-04-11T19:34:09.890Z,93786.51
2019-04-11T19:36:39.808Z,93785.70
2019-04-11T19:39:13.478Z,93786.92
2019-04-11T19:41:40.393Z,93785.03
2019-04-11T19:44:09.054Z,93787.99
2019-04-11T19:46:37.746Z,93786.63
2019-04-11T19:49:06.427Z,93786.86
2019-04-11T19:51:35.103Z,93794.70
2019-04-11T19:54:03.913Z,93785.67
2019-04-11T19:56:43.106Z,93782.56
2019-04-11T19:59:11.783Z,93778.52
2019-04-11T20:01:40.444Z,93780.59
2019-04-11T20:04:09.119Z,93783.53
2019-04-11T20:06:37.791Z,93783.00
2019-04-11T20:09:07.675Z,93785.50
2019-04-11T20:11:36.335Z,93790.06
2019-04-11T20:14:05.002Z,93790.15
2019-04-11T20:16:41.386Z,93786.42
2019-04-11T20:19:04.096Z,93789.55
2019-04-11T20:21:32.760Z,93795.64
2019-04-11T20:24:01.434Z,93793.88
2019-04-11T20:26:30.346Z,93787.38
2019-04-11T20:28:58.999Z,93794.27
2019-04-11T20:31:27.743Z,93797.32
2019-04-11T20:33:56.435Z,93794.75
2019-04-11T20:36:33.164Z,93793.51
2019-04-11T20:38:55.634Z,93794.19
2019-04-11T20:41:24.380Z,93794.88
2019-04-11T20:43:56.001Z,93804.86
2019-04-11T20:46:23.432Z,93802.38
2019-04-11T20:48:54.566Z,93801.98
2019-04-11T20:51:22.519Z,93793.62
2019-04-11T20:53:51.197Z,93808.55
2019-04-11T20:56:24.254Z,93808.91
2019-04-11T20:58:50.266Z,93806.63
2019-04-11T21:01:18.942Z,93817.55
2019-04-11T21:03:47.614Z,93806.47
2019-04-11T21:06:16.319Z,93802.05
2019-04-11T21:08:45.076Z,93805.43
2019-04-11T21:11:13.764Z,93784.55
2019-04-11T21:13:45.193Z,93803.28
2019-04-11T21:16:13.866Z,93799.87
2019-04-11T21:18:42.544Z,93806.57
2019-04-11T21:21:11.224Z,93812.72
2019-04-11T21:23:39.883Z,93810.16
2019-04-11T21:26:08.641Z,93765.23
2019-04-11T21:28:37.332Z,93810.60
2019-04-11T21:31:05.980Z,93811.27
2019-04-11T21:33:35.064Z,93812.52
2019-04-11T21:36:03.914Z,93807.59
2019-04-11T21:38:32.601Z,93820.52
2019-04-11T21:41:01.296Z,93817.50
2019-04-11T21:43:29.981Z,93817.05
2019-04-11T21:45:58.643Z,93807.48
2019-04-11T21:48:27.347Z,93813.38
2019-04-11T21:50:56.019Z,93808.11
2019-04-11T21:53:35.814Z,93805.14
2019-04-11T21:55:55.105Z,93808.50
2019-04-11T21:58:23.825Z,93813.27
2019-04-11T22:00:57.974Z,93808.88
2019-04-11T22:03:26.654Z,93806.68
2019-04-11T22:05:55.423Z,93810.91
2019-04-11T22:08:24.081Z,93801.48
2019-04-11T22:10:52.814Z,93799.39
2019-04-11T22:13:21.416Z,93796.92
2019-04-11T22:15:50.085Z,93800.38
2019-04-11T22:18:18.755Z,93803.86
2019-04-11T22:20:47.449Z,93797.83
2019-04-11T22:23:16.126Z,93799.70
2019-04-11T22:25:44.836Z,93802.30
2019-04-11T22:28:13.512Z,93802.17
2019-04-11T22:30:42.178Z,93790.83
2019-04-11T22:33:12.499Z,93794.91
2019-04-11T22:35:41.170Z,93788.61
2019-04-11T22:38:09.836Z,93783.20
2019-04-11T22:40:38.509Z,93787.52
2019-04-11T22:43:08.149Z,93783.69
2019-04-11T22:45:37.929Z,93783.42
2019-04-11T22:48:08.818Z,93784.80
2019-04-11T22:50:40.424Z,93787.50
2019-04-11T22:53:08.027Z,93786.16
2019-04-11T22:55:38.916Z,93786.16
2019-04-11T22:58:07.099Z,93785.41
2019-04-11T23:00:35.749Z,93789.72
2019-04-11T23:03:06.029Z,93785.52
2019-04-11T23:05:34.686Z,93785.27
2019-04-11T23:08:03.345Z,93792.31
2019-04-11T23:10:32.007Z,93781.20
2019-04-11T23:13:00.681Z,93778.84
2019-04-11T23:15:29.389Z,93777.35
2019-04-11T23:17:58.055Z,93773.75
2019-04-11T23:20:26.742Z,93773.63
2019-04-11T23:22:55.402Z,93778.58
2019-04-11T23:25:24.073Z,93780.06
2019-04-11T23:27:52.748Z,93782.37
2019-04-11T23:30:21.402Z,93739.78
2019-04-11T23:32:51.665Z,93779.53
2019-04-11T23:35:21.120Z,93776.77
2019-04-11T23:37:52.003Z,93782.77
2019-04-11T23:40:22.055Z,93779.29
2019-04-11T23:42:51.051Z,93780.14
2019-04-11T23:45:21.395Z,93776.80
2019-04-11T23:47:53.251Z,93784.58
2019-04-11T23:50:20.565Z,93781.27
2019-04-11T23:52:49.219Z,93778.03
2019-04-11T23:55:17.935Z,93776.58
2019-04-11T23:57:46.613Z,93777.94
